Time;durP1;ratioP1;P1;durP2;ratioP2;P2;SDS_P1;SDS_P2;PMS_P1;PMS_P2;Temp;Humidity;BMP_temperature;BMP_pressure;BME280_temperature;BME280_humidity;BME280_pressure;Samples;Min_cycle;Max_cycle;Signal;HPM_P1;HPM_P2
2023/10/12 00:01:58;;;;;;;11.43;2.40;;;13.40;99.90;;;;;;4982259;28;20078;-45
2023/10/12 00:04:26;;;;;;;13.38;2.92;;;13.40;99.90;;;;;;4981640;28;20042;-43
2023/10/12 00:06:51;;;;;;;16.27;3.10;;;13.30;99.90;;;;;;5000123;28;20425;-44
2023/10/12 00:09:20;;;;;;;12.45;2.70;;;13.40;99.90;;;;;;4981801;28;20046;-43
2023/10/12 00:12:01;;;;;;;15.10;2.80;;;13.40;99.90;;;;;;4999630;28;20042;-46
2023/10/12 00:14:29;;;;;;;14.68;2.65;;;13.40;99.90;;;;;;4981556;28;20360;-43
2023/10/12 00:16:55;;;;;;;12.98;3.58;;;13.40;99.90;;;;;;4999605;28;20519;-44
2023/10/12 00:19:23;;;;;;;13.93;3.53;;;13.40;99.90;;;;;;4998518;28;20080;-44
2023/10/12 00:21:50;;;;;;;12.77;2.42;;;13.40;99.90;;;;;;4981651;28;20052;-46
2023/10/12 00:24:17;;;;;;;11.52;2.75;;;13.40;99.90;;;;;;4981160;28;20819;-44
2023/10/12 00:26:44;;;;;;;15.20;3.35;;;13.40;99.90;;;;;;5000003;28;20052;-45
2023/10/12 00:29:10;;;;;;;12.63;2.90;;;13.30;99.90;;;;;;4999957;28;20046;-43
2023/10/12 00:31:41;;;;;;;17.50;3.50;;;13.40;99.90;;;;;;4999901;28;20065;-46
2023/10/12 00:34:08;;;;;;;14.50;3.30;;;13.30;99.90;;;;;;4965064;28;20331;-43
2023/10/12 00:36:37;;;;;;;12.48;3.40;;;13.40;99.90;;;;;;4999846;28;20133;-45
2023/10/12 00:39:10;;;;;;;9.18;3.00;;;13.40;99.90;;;;;;4979846;28;20053;-45
2023/10/12 00:41:44;;;;;;;;;;;13.40;99.90;;;;;;4999445;28;20046;-45
2023/10/12 00:44:15;;;;;;;14.38;3.00;;;13.50;99.90;;;;;;4998044;28;19925;-44
2023/10/12 00:46:58;;;;;;;19.35;3.70;;;13.40;99.90;;;;;;4998999;28;20721;-44
2023/10/12 00:49:27;;;;;;;11.05;3.05;;;13.40;99.90;;;;;;4981402;28;20497;-43
2023/10/12 00:52:21;;;;;;;16.52;3.35;;;13.30;99.90;;;;;;4981538;28;20109;-45
2023/10/12 00:54:56;;;;;;;12.02;2.65;;;13.40;99.90;;;;;;4992906;28;20334;-45
2023/10/12 00:57:22;;;;;;;19.55;3.15;;;13.30;99.90;;;;;;4964887;28;20398;-42
2023/10/12 00:59:51;;;;;;;12.70;2.65;;;13.40;99.90;;;;;;4998882;28;20398;-44
2023/10/12 01:02:20;;;;;;;11.60;2.85;;;13.40;99.90;;;;;;4998638;28;20432;-43
2023/10/12 01:04:52;;;;;;;14.57;3.47;;;13.30;99.90;;;;;;4980027;28;20094;-44
2023/10/12 01:07:34;;;;;;;13.55;2.72;;;13.30;99.90;;;;;;4998210;28;20414;-43
2023/10/12 01:10:06;;;;;;;13.90;3.17;;;13.30;99.90;;;;;;4998094;28;20050;-46
2023/10/12 01:12:33;;;;;;;12.65;3.15;;;13.30;99.90;;;;;;4980635;28;20552;-43
2023/10/12 01:15:08;;;;;;;18.40;3.13;;;13.30;99.90;;;;;;4980109;28;20049;-44
2023/10/12 01:17:35;;;;;;;14.02;3.38;;;13.40;99.90;;;;;;4998926;28;20053;-45
2023/10/12 01:20:11;;;;;;;12.98;3.30;;;13.30;99.90;;;;;;4998548;28;20176;-45
2023/10/12 01:22:39;;;;;;;14.07;3.15;;;13.30;99.90;;;;;;4981427;28;20518;-43
2023/10/12 01:25:11;;;;;;;15.43;3.25;;;13.30;99.90;;;;;;4997893;28;20160;-43
2023/10/12 01:27:43;;;;;;;14.55;3.35;;;13.30;99.90;;;;;;4998224;28;20069;-44
2023/10/12 01:30:21;;;;;;;12.20;3.13;;;13.20;99.90;;;;;;4999566;28;20073;-44
2023/10/12 01:32:57;;;;;;;15.48;3.30;;;13.20;99.90;;;;;;5002398;28;20042;-44
2023/10/12 01:35:32;;;;;;;14.05;2.83;;;13.30;99.90;;;;;;4984084;28;20056;-43
2023/10/12 01:38:03;;;;;;;16.90;3.35;;;13.20;99.90;;;;;;4998007;28;20074;-47
2023/10/12 01:43:14;;;;;;;14.75;3.53;;;13.20;99.90;;;;;;5002875;28;20054;-43
2023/10/12 01:45:59;;;;;;;21.65;3.53;;;13.20;99.90;;;;;;5002023;28;20141;-47
2023/10/12 01:48:29;;;;;;;19.40;3.13;;;13.20;99.90;;;;;;5002830;28;20488;-47
2023/10/12 01:50:56;;;;;;;14.40;3.65;;;13.20;99.90;;;;;;5002957;28;20034;-45
2023/10/12 01:55:47;;;;;;;14.40;3.55;;;13.20;99.90;;;;;;5001945;28;20049;-47
2023/10/12 01:58:17;;;;;;;21.50;3.33;;;13.20;99.90;;;;;;5002385;28;20056;-46
2023/10/12 02:00:48;;;;;;;16.25;3.65;;;13.20;99.90;;;;;;4983761;28;20537;-46
2023/10/12 02:03:31;;;;;;;17.63;3.20;;;13.20;99.90;;;;;;4989346;28;20060;-46
2023/10/12 02:08:26;;;;;;;16.05;2.88;;;13.20;99.90;;;;;;4984501;28;20357;-43
2023/10/12 02:11:05;;;;;;;19.58;3.88;;;13.10;99.90;;;;;;4984560;28;20050;-44
2023/10/12 02:13:33;;;;;;;23.92;4.03;;;13.10;99.90;;;;;;5001958;28;20042;-45
2023/10/12 02:16:12;;;;;;;19.63;3.75;;;13.10;99.90;;;;;;4983479;28;20053;-43
2023/10/12 02:18:38;;;;;;;16.17;2.90;;;13.10;99.90;;;;;;5002016;28;20516;-42
2023/10/12 02:21:09;;;;;;;20.05;3.10;;;13.10;99.90;;;;;;5001944;28;20038;-43
2023/10/12 02:23:39;;;;;;;16.35;3.15;;;13.10;99.90;;;;;;5002659;28;20049;-43
2023/10/12 02:28:53;;;;;;;22.65;3.38;;;13.00;99.90;;;;;;5002269;28;20561;-43
2023/10/12 02:31:28;;;;;;;22.70;3.67;;;13.00;99.90;;;;;;4984304;28;20205;-44
2023/10/12 02:33:54;;;;;;;18.45;3.53;;;13.00;99.90;;;;;;4983908;28;20057;-43
2023/10/12 02:36:20;;;;;;;20.83;4.03;;;13.00;99.90;;;;;;4984408;28;20123;-44
2023/10/12 02:38:45;;;;;;;15.40;4.10;;;13.00;99.90;;;;;;4979445;28;20049;-50
2023/10/12 02:41:12;;;;;;;18.35;3.85;;;13.00;99.90;;;;;;4967303;28;20058;-44
2023/10/12 02:43:50;;;;;;;15.88;4.10;;;13.10;99.90;;;;;;5001305;28;20061;-45
2023/10/12 02:46:23;;;;;;;15.43;3.63;;;13.00;99.90;;;;;;4983705;28;20328;-42
2023/10/12 02:48:51;;;;;;;13.70;3.78;;;13.00;99.90;;;;;;5002067;28;20053;-44
2023/10/12 02:51:18;;;;;;;15.48;3.35;;;12.90;99.90;;;;;;5001764;28;20405;-45
2023/10/12 02:53:47;;;;;;;13.70;3.42;;;12.90;99.90;;;;;;5000685;28;20493;-43
2023/10/12 02:56:14;;;;;;;15.02;3.10;;;12.90;99.90;;;;;;5001578;28;20038;-43
2023/10/12 02:58:45;;;;;;;22.17;4.40;;;12.80;99.90;;;;;;5001172;28;20054;-45
2023/10/12 03:01:16;;;;;;;15.52;3.85;;;12.80;99.90;;;;;;5001644;28;20060;-44
2023/10/12 03:03:48;;;;;;;19.70;4.10;;;12.80;99.90;;;;;;5000428;28;20296;-42
2023/10/12 03:06:32;;;;;;;17.98;3.45;;;12.80;99.90;;;;;;4983418;28;20491;-43
2023/10/12 03:11:29;;;;;;;14.32;3.58;;;12.70;99.90;;;;;;5000936;28;20333;-44
2023/10/12 03:14:12;;;;;;;15.65;3.30;;;12.70;99.90;;;;;;5000365;28;20520;-44
2023/10/12 03:16:41;;;;;;;14.75;3.78;;;12.70;99.90;;;;;;4982968;28;20519;-43
2023/10/12 03:19:26;;;;;;;16.35;3.33;;;12.70;99.90;;;;;;5000967;28;20504;-43
2023/10/12 03:21:52;;;;;;;20.65;4.00;;;12.60;99.90;;;;;;5000657;28;20530;-43
2023/10/12 03:24:29;;;;;;;15.63;4.07;;;12.70;99.90;;;;;;4999764;28;20046;-44
2023/10/12 03:29:28;;;;;;;12.63;3.33;;;12.70;99.90;;;;;;5001203;28;20428;-44
2023/10/12 03:31:55;;;;;;;12.38;3.47;;;12.70;99.90;;;;;;4983317;28;20071;-43
2023/10/12 03:34:38;;;;;;;14.07;2.95;;;12.70;99.90;;;;;;5000119;28;20046;-46
2023/10/12 03:37:07;;;;;;;19.05;3.67;;;12.60;99.90;;;;;;4980579;28;20057;-44
2023/10/12 03:39:58;;;;;;;10.35;3.45;;;12.70;99.90;;;;;;4999588;28;20061;-44
2023/10/12 03:44:54;;;;;;;15.48;3.97;;;12.60;99.90;;;;;;4999930;28;20134;-46
2023/10/12 03:52:19;;;;;;;;;;;12.70;99.90;;;;;;4983438;28;20058;-42
2023/10/12 03:54:56;;;;;;;18.35;4.72;;;12.70;99.90;;;;;;4981683;28;20316;-46
2023/10/12 04:02:39;;;;;;;20.33;4.43;;;12.70;99.90;;;;;;4998389;28;20057;-43
2023/10/12 04:05:21;;;;;;;21.02;4.97;;;12.70;99.90;;;;;;4980295;28;20176;-42
2023/10/12 04:13:13;;;;;;;15.95;4.30;;;12.80;99.90;;;;;;4954949;28;20069;-44
2023/10/12 04:18:33;;;;;;;13.32;4.32;;;12.80;99.90;;;;;;4999989;28;20046;-45
2023/10/12 04:21:00;;;;;;;17.08;4.47;;;12.80;99.90;;;;;;5000100;28;20042;-43
2023/10/12 04:27:06;;;;;;;25.80;4.75;;;12.80;99.90;;;;;;4999824;28;20536;-45
2023/10/12 04:28:56;;;;;;;22.95;5.25;;;12.80;99.90;;;;;;4985538;28;20060;-46
2023/10/12 04:41:38;;;;;;;16.52;4.05;;;12.80;99.90;;;;;;5000054;28;20049;-44
2023/10/12 04:45:02;;;;;;;19.20;3.80;;;12.80;99.90;;;;;;4964719;28;20137;-45
2023/10/12 04:46:59;;;;;;;20.33;3.85;;;12.80;99.90;;;;;;4991239;28;20057;-46
2023/10/12 04:57:26;;;;;;;16.38;4.18;;;12.70;99.90;;;;;;4999531;28;20101;-43
2023/10/12 05:02:54;;;;;;;14.80;3.08;;;12.60;99.90;;;;;;4981506;28;20054;-48
2023/10/12 05:07:55;;;;;;;17.13;3.05;;;12.60;99.90;;;;;;4981407;28;20057;-45
2023/10/12 05:10:31;;;;;;;;;;;12.60;99.90;;;;;;4999226;28;20628;-45
2023/10/12 05:13:04;;;;;;;12.45;3.00;;;12.50;99.90;;;;;;4999157;28;20388;-46
2023/10/12 05:15:39;;;;;;;16.52;3.75;;;12.50;99.90;;;;;;4980515;28;20573;-43
2023/10/12 05:18:10;;;;;;;15.75;3.40;;;12.50;99.90;;;;;;4999392;28;20063;-45
2023/10/12 05:20:43;;;;;;;16.38;2.90;;;12.40;99.90;;;;;;4980980;28;20053;-44
2023/10/12 05:23:10;;;;;;;14.88;2.90;;;12.30;99.90;;;;;;4998415;28;20080;-45
2023/10/12 05:26:07;;;;;;;15.82;4.20;;;12.30;99.90;;;;;;4998242;28;20052;-47
2023/10/12 05:28:35;;;;;;;16.67;2.95;;;12.20;99.90;;;;;;4998845;28;20058;-46
2023/10/12 05:36:11;;;;;;;18.65;2.60;;;12.10;99.90;;;;;;4998524;28;20099;-43
2023/10/12 05:38:48;;;;;;;19.95;3.63;;;12.00;99.90;;;;;;4993810;28;20045;-43
2023/10/12 05:41:21;;;;;;;10.88;2.83;;;11.90;99.90;;;;;;4980421;28;20061;-47
2023/10/12 05:43:46;;;;;;;11.38;3.33;;;11.80;99.90;;;;;;4996552;28;20524;-45
2023/10/12 05:46:15;;;;;;;12.10;2.80;;;11.80;99.90;;;;;;4980232;28;20046;-47
2023/10/12 05:48:45;;;;;;;19.83;3.25;;;11.70;99.90;;;;;;5000056;28;20104;-44
2023/10/12 05:51:21;;;;;;;6.90;2.70;;;11.70;99.90;;;;;;4998929;28;20038;-43
2023/10/12 05:53:48;;;;;;;14.88;2.90;;;11.60;99.90;;;;;;4997321;28;20497;-45
2023/10/12 05:56:18;;;;;;;21.08;3.13;;;11.60;99.90;;;;;;4998821;28;20608;-44
2023/10/12 05:58:43;;;;;;;12.23;2.50;;;11.50;99.90;;;;;;4981071;28;20060;-46
2023/10/12 06:01:09;;;;;;;11.07;2.47;;;11.40;99.90;;;;;;4998506;28;20045;-43
2023/10/12 06:03:46;;;;;;;15.32;3.50;;;11.40;99.90;;;;;;4997788;28;20099;-45
2023/10/12 06:06:12;;;;;;;14.82;3.30;;;11.40;99.90;;;;;;4998565;28;20049;-45
2023/10/12 06:08:40;;;;;;;12.73;3.00;;;11.40;99.90;;;;;;4997892;28;20049;-43
2023/10/12 06:11:09;;;;;;;15.27;2.75;;;11.40;99.90;;;;;;4998242;28;20107;-46
2023/10/12 06:13:45;;;;;;;16.33;3.13;;;11.30;99.90;;;;;;4979822;28;20128;-44
2023/10/12 06:16:20;;;;;;;14.27;2.50;;;11.40;99.90;;;;;;4999469;28;20121;-45
2023/10/12 06:18:49;;;;;;;10.57;2.40;;;11.40;99.90;;;;;;4984290;28;20106;-43
2023/10/12 06:21:17;;;;;;;13.38;3.15;;;11.30;99.90;;;;;;5002332;28;20042;-44
2023/10/12 06:23:51;;;;;;;16.10;3.35;;;11.40;99.90;;;;;;4999598;28;20099;-44
2023/10/12 06:26:28;;;;;;;14.05;2.90;;;11.40;99.90;;;;;;4984239;28;20066;-44
2023/10/12 06:28:55;;;;;;;16.85;3.22;;;11.40;99.90;;;;;;5001831;28;20057;-42
2023/10/12 06:31:21;;;;;;;10.98;2.90;;;11.50;99.90;;;;;;4968155;28;20587;-43
2023/10/12 06:33:49;;;;;;;11.60;2.97;;;11.50;99.90;;;;;;4983049;28;20053;-45
2023/10/12 06:36:22;;;;;;;12.35;3.20;;;11.50;99.90;;;;;;5000675;28;20057;-43
2023/10/12 06:44:13;;;;;;;15.52;2.90;;;11.50;99.90;;;;;;4999193;28;20472;-45
2023/10/12 06:46:46;;;;;;;11.50;3.13;;;11.60;99.90;;;;;;4980910;28;20590;-44
2023/10/12 06:49:21;;;;;;;13.93;2.95;;;11.60;99.90;;;;;;4981148;28;20041;-44
2023/10/12 06:51:54;;;;;;;11.23;2.67;;;11.60;99.90;;;;;;5001531;28;20416;-44
2023/10/12 07:02:29;;;;;;;13.60;4.68;;;11.50;99.90;;;;;;5005551;28;20089;-46
2023/10/12 07:05:00;;;;;;;12.75;3.25;;;11.50;99.90;;;;;;4984789;28;20046;-45
2023/10/12 07:07:28;;;;;;;9.85;3.13;;;11.60;99.90;;;;;;5006795;28;20713;-44
2023/10/12 07:10:12;;;;;;;11.43;3.33;;;11.60;99.90;;;;;;5001262;28;20535;-43
2023/10/12 07:12:49;;;;;;;7.18;2.80;;;11.70;99.90;;;;;;4985420;28;20056;-43
2023/10/12 07:15:23;;;;;;;8.82;4.10;;;11.90;99.90;;;;;;4983023;28;20122;-46
2023/10/12 07:17:53;;;;;;;9.35;3.28;;;12.00;99.90;;;;;;4999922;28;20052;-44
2023/10/12 07:23:14;;;;;;;12.90;2.97;;;12.10;99.90;;;;;;5000875;28;20060;-44
2023/10/12 07:25:43;;;;;;;9.32;3.42;;;12.10;99.90;;;;;;4999449;28;20058;-42
2023/10/12 07:28:18;;;;;;;14.35;3.08;;;12.20;99.90;;;;;;4982861;28;20136;-44
2023/10/12 07:31:05;;;;;;;14.25;3.63;;;12.20;99.90;;;;;;4993284;28;20053;-42
2023/10/12 07:33:34;;;;;;;11.73;3.05;;;12.30;99.90;;;;;;5000006;28;20125;-44
2023/10/12 07:36:11;;;;;;;11.88;3.10;;;12.30;99.90;;;;;;4998283;28;20049;-44
2023/10/12 07:38:36;;;;;;;20.08;4.25;;;12.40;99.90;;;;;;4995990;28;20042;-43
2023/10/12 07:41:09;;;;;;;14.30;4.10;;;12.50;99.90;;;;;;5001199;28;20041;-46
2023/10/12 07:43:38;;;;;;;13.05;3.70;;;12.50;99.90;;;;;;4999909;28;20488;-42
2023/10/12 07:46:14;;;;;;;14.52;3.08;;;12.60;99.90;;;;;;5001245;28;20278;-43
2023/10/12 07:48:42;;;;;;;16.63;3.80;;;12.70;99.90;;;;;;5000932;28;20196;-45
2023/10/12 07:51:28;;;;;;;13.82;3.30;;;12.80;99.90;;;;;;4999863;28;20515;-43
2023/10/12 07:53:57;;;;;;;10.82;2.95;;;12.90;99.90;;;;;;4982443;28;20050;-42
2023/10/12 07:56:40;;;;;;;9.90;3.63;;;13.00;99.90;;;;;;4982958;28;20522;-44
2023/10/12 07:59:14;;;;;;;11.43;3.60;;;13.00;99.90;;;;;;4981647;28;20077;-43
2023/10/12 08:01:39;;;;;;;13.25;3.30;;;13.00;99.90;;;;;;5000226;28;20456;-43
2023/10/12 08:04:19;;;;;;;10.70;3.22;;;13.00;99.90;;;;;;4982514;28;20053;-43
2023/10/12 08:06:45;;;;;;;11.85;3.47;;;13.10;99.90;;;;;;5001075;28;20394;-44
2023/10/12 08:11:53;;;;;;;12.10;2.58;;;13.10;99.90;;;;;;5000477;28;20053;-43
2023/10/12 08:14:39;;;;;;;13.48;2.97;;;13.10;99.90;;;;;;4981283;28;20092;-45
2023/10/12 08:17:29;;;;;;;13.30;3.38;;;13.20;99.90;;;;;;4982342;28;20556;-43
2023/10/12 08:20:43;;;;;;;9.63;2.28;;;13.20;99.90;;;;;;4981964;28;20052;-43
2023/10/12 08:22:43;;;;;;;10.05;2.55;;;13.30;99.90;;;;;;4999041;28;20077;-43
2023/10/12 08:25:09;;;;;;;11.70;3.47;;;13.40;99.90;;;;;;4999935;28;20389;-43
2023/10/12 08:27:53;;;;;;;10.00;2.20;;;13.40;99.90;;;;;;4985059;28;20048;-44
2023/10/12 08:30:48;;;;;;;8.82;2.00;;;13.40;99.90;;;;;;5002749;28;20041;-44
2023/10/12 08:33:48;;;;;;;11.25;2.60;;;13.40;99.90;;;;;;4998571;28;20062;-43
2023/10/12 08:39:08;;;;;;;7.80;2.20;;;13.60;99.90;;;;;;4995417;28;20618;-44
2023/10/12 08:41:57;;;;;;;11.80;2.00;;;13.80;99.90;;;;;;4981598;28;20046;-45
2023/10/12 08:44:22;;;;;;;8.98;2.03;;;13.90;99.90;;;;;;4981104;28;20539;-42
2023/10/12 08:49:34;;;;;;;9.68;2.83;;;14.20;99.90;;;;;;5002161;28;20049;-42
2023/10/12 08:52:18;;;;;;;13.32;2.67;;;14.30;99.90;;;;;;4999314;28;20053;-45
2023/10/12 08:54:52;;;;;;;12.38;2.33;;;14.40;99.90;;;;;;4998959;28;20086;-44
2023/10/12 08:57:44;;;;;;;10.57;2.20;;;14.40;99.90;;;;;;4982192;28;20048;-45
2023/10/12 09:02:53;;;;;;;11.30;2.58;;;14.40;99.90;;;;;;4999724;28;20274;-44
2023/10/12 09:05:24;;;;;;;9.45;2.20;;;14.40;99.90;;;;;;4998861;28;20089;-44
2023/10/12 09:10:49;;;;;;;10.40;2.10;;;14.50;99.90;;;;;;4999225;28;20037;-45
2023/10/12 09:13:19;;;;;;;9.70;2.28;;;14.60;99.90;;;;;;4996464;28;20049;-45
2023/10/12 09:15:48;;;;;;;16.38;2.47;;;14.70;99.90;;;;;;4999203;28;20053;-45
2023/10/12 09:18:18;;;;;;;10.18;2.05;;;14.70;99.90;;;;;;4981184;28;20052;-47
2023/10/12 09:36:43;;;;;;;14.20;2.65;;;14.80;99.90;;;;;;4999427;28;20125;-43
2023/10/12 09:39:17;;;;;;;14.48;3.17;;;14.80;99.90;;;;;;4992559;28;20068;-43
2023/10/12 09:41:44;;;;;;;12.13;2.90;;;15.00;99.90;;;;;;4997464;28;20045;-47
2023/10/12 09:44:13;;;;;;;7.00;1.83;;;15.10;99.90;;;;;;4990379;28;20582;-47
2023/10/12 09:46:46;;;;;;;19.33;3.80;;;15.20;99.90;;;;;;4998975;28;20058;-44
2023/10/12 09:49:21;;;;;;;9.20;2.13;;;15.40;99.90;;;;;;4981236;28;20056;-43
2023/10/12 09:51:51;;;;;;;9.88;3.03;;;15.50;99.90;;;;;;4982247;28;20092;-46
2023/10/12 09:54:31;;;;;;;8.93;2.33;;;15.60;99.90;;;;;;5001637;28;20519;-43
2023/10/12 09:57:04;;;;;;;8.68;2.10;;;15.60;99.90;;;;;;5002643;28;20034;-44
2023/10/12 09:59:31;;;;;;;14.43;2.20;;;15.70;99.90;;;;;;4969013;28;20107;-44
2023/10/12 10:02:23;;;;;;;13.63;2.33;;;15.80;99.90;;;;;;4984418;28;20034;-44
2023/10/12 10:04:57;;;;;;;15.65;3.33;;;15.70;99.90;;;;;;4983902;28;20049;-44
2023/10/12 10:07:27;;;;;;;9.18;2.33;;;15.60;99.90;;;;;;4984151;28;20050;-44
2023/10/12 10:09:59;;;;;;;12.95;2.80;;;15.60;99.90;;;;;;5001038;28;20300;-44
2023/10/12 10:12:35;;;;;;;12.55;2.67;;;15.50;99.90;;;;;;5002823;28;20085;-45
2023/10/12 10:15:10;;;;;;;10.43;2.08;;;15.50;99.90;;;;;;4984551;28;20572;-42
2023/10/12 10:17:46;;;;;;;9.30;2.20;;;15.40;99.90;;;;;;5003091;28;20470;-44
2023/10/12 10:20:46;;;;;;;10.57;1.85;;;15.40;99.90;;;;;;4984787;28;20042;-44
2023/10/12 10:23:12;;;;;;;5.90;2.10;;;15.40;99.90;;;;;;5001267;28;20058;-43
2023/10/12 10:25:50;;;;;;;11.93;2.20;;;15.40;99.90;;;;;;4984575;28;20086;-45
2023/10/12 10:28:23;;;;;;;8.20;2.13;;;15.50;99.90;;;;;;4983519;28;20093;-43
2023/10/12 10:30:50;;;;;;;9.02;1.83;;;15.50;99.90;;;;;;5000561;28;20640;-44
2023/10/12 10:33:23;;;;;;;9.10;2.35;;;15.40;99.90;;;;;;4999669;28;20310;-46
2023/10/12 10:36:13;;;;;;;9.00;1.98;;;15.40;99.90;;;;;;4967084;28;20037;-44
2023/10/12 10:39:03;;;;;;;10.82;2.25;;;15.40;99.90;;;;;;4975058;28;20041;-44
2023/10/12 10:44:16;;;;;;;9.15;1.95;;;15.40;99.90;;;;;;4987047;28;20053;-44
2023/10/12 10:47:10;;;;;;;12.80;2.17;;;15.30;99.90;;;;;;5004792;28;20592;-44
2023/10/12 10:49:35;;;;;;;12.35;2.28;;;15.30;99.90;;;;;;5001039;28;20419;-47
2023/10/12 10:54:33;;;;;;;8.15;2.30;;;15.30;99.90;;;;;;4998314;28;20507;-45
2023/10/12 10:57:04;;;;;;;10.95;2.55;;;15.30;99.90;;;;;;5001198;28;20036;-46
2023/10/12 10:59:31;;;;;;;8.25;1.75;;;15.30;99.90;;;;;;5001331;28;20044;-46
2023/10/12 11:01:59;;;;;;;9.52;2.08;;;15.20;99.90;;;;;;5001229;28;20041;-45
2023/10/12 11:07:03;;;;;;;12.38;2.50;;;15.20;99.90;;;;;;4980733;28;20508;-46
2023/10/12 11:10:03;;;;;;;13.20;2.40;;;15.20;99.90;;;;;;5000820;28;20045;-43
2023/10/12 11:12:24;;;;;;;8.48;2.45;;;15.20;99.90;;;;;;5000784;28;20111;-43
2023/10/12 11:15:00;;;;;;;8.38;2.38;;;15.20;99.90;;;;;;5000067;28;20046;-46
2023/10/12 11:17:30;;;;;;;8.90;2.13;;;15.10;99.90;;;;;;4982713;28;20042;-46
2023/10/12 11:19:57;;;;;;;12.38;2.17;;;15.10;99.90;;;;;;4966128;28;20401;-44
2023/10/12 11:22:23;;;;;;;12.52;3.00;;;15.10;99.90;;;;;;5000743;28;20438;-46
2023/10/12 11:24:49;;;;;;;6.10;1.90;;;15.20;99.90;;;;;;4999664;28;20044;-46
2023/10/12 11:27:32;;;;;;;11.10;2.20;;;15.20;99.90;;;;;;5001227;28;20468;-47
2023/10/12 11:30:00;;;;;;;6.63;1.85;;;15.20;99.90;;;;;;4999738;28;20034;-47
2023/10/12 11:32:28;;;;;;;13.85;2.70;;;15.20;99.90;;;;;;4983754;28;20053;-45
2023/10/12 11:34:59;;;;;;;10.75;2.65;;;15.10;99.90;;;;;;4999923;28;20262;-48
2023/10/12 11:37:28;;;;;;;7.03;1.77;;;15.20;99.90;;;;;;4979501;28;20050;-45
2023/10/12 11:39:54;;;;;;;11.73;2.70;;;15.10;99.90;;;;;;4997262;28;20497;-44
2023/10/12 11:42:20;;;;;;;11.27;2.13;;;15.10;99.90;;;;;;5000657;28;20037;-46
2023/10/12 11:44:47;;;;;;;9.70;3.00;;;15.10;99.90;;;;;;4999749;28;20719;-45
2023/10/12 11:47:28;;;;;;;12.23;1.95;;;15.10;99.90;;;;;;5000160;28;20076;-43
2023/10/12 11:49:58;;;;;;;7.70;1.90;;;15.10;99.90;;;;;;5000303;28;20141;-45
2023/10/12 11:52:32;;;;;;;8.32;2.33;;;15.10;99.90;;;;;;5000318;28;20050;-45
2023/10/12 11:55:07;;;;;;;10.13;2.33;;;15.10;99.90;;;;;;4999102;28;20041;-44
2023/10/12 11:57:35;;;;;;;11.70;2.22;;;15.10;99.90;;;;;;4996598;28;20125;-45
2023/10/12 12:00:20;;;;;;;11.00;2.45;;;15.10;99.90;;;;;;4976698;28;20477;-43
2023/10/12 12:02:53;;;;;;;13.05;2.30;;;15.10;99.90;;;;;;4999281;28;20049;-43
2023/10/12 12:05:22;;;;;;;8.00;1.93;;;15.20;99.90;;;;;;5001314;28;20610;-44
2023/10/12 12:07:51;;;;;;;9.90;2.33;;;15.20;99.90;;;;;;4981991;28;20053;-45
2023/10/12 12:13:15;;;;;;;8.95;2.53;;;15.10;99.90;;;;;;4974665;28;20076;-44
2023/10/12 12:15:44;;;;;;;7.70;2.00;;;15.10;99.90;;;;;;5004050;28;20050;-47
2023/10/12 12:18:17;;;;;;;9.48;2.17;;;15.10;99.90;;;;;;4985362;28;20072;-46
2023/10/12 12:20:44;;;;;;;9.07;2.47;;;15.10;99.90;;;;;;5001611;28;20370;-45
2023/10/12 12:23:10;;;;;;;9.20;1.95;;;15.10;99.90;;;;;;4999229;28;20508;-45
2023/10/12 12:25:40;;;;;;;10.93;2.28;;;15.20;99.90;;;;;;4999820;28;20361;-46
2023/10/12 12:28:07;;;;;;;7.80;2.67;;;15.20;99.90;;;;;;4999453;28;20504;-44
2023/10/12 12:30:46;;;;;;;11.95;2.05;;;15.10;99.90;;;;;;4999298;28;20145;-43
2023/10/12 12:33:18;;;;;;;10.57;2.80;;;15.10;99.90;;;;;;4998523;28;20072;-46
2023/10/12 12:35:47;;;;;;;6.78;2.60;;;15.20;99.90;;;;;;4981137;28;20046;-45
2023/10/12 12:38:34;;;;;;;11.23;2.95;;;15.20;99.90;;;;;;4994512;28;20108;-43
2023/10/12 12:41:05;;;;;;;8.63;1.80;;;15.20;99.90;;;;;;4996793;28;20347;-46
2023/10/12 12:43:33;;;;;;;11.60;2.83;;;15.20;99.90;;;;;;4998523;28;20147;-47
2023/10/12 12:45:59;;;;;;;9.02;1.92;;;15.20;99.90;;;;;;4999147;28;20551;-43
2023/10/12 12:48:25;;;;;;;17.67;9.18;;;15.10;99.90;;;;;;4999291;28;20081;-46
2023/10/12 12:50:50;;;;;;;10.45;4.70;;;15.10;99.90;;;;;;4998691;28;20199;-46
2023/10/12 12:53:19;;;;;;;4.72;1.80;;;15.20;99.90;;;;;;4980602;28;20049;-46
2023/10/12 12:55:46;;;;;;;11.43;2.28;;;15.10;99.90;;;;;;4999487;28;20034;-44
2023/10/12 12:58:15;;;;;;;10.73;2.72;;;15.20;99.90;;;;;;4999087;28;20042;-46
2023/10/12 13:00:42;;;;;;;9.57;2.00;;;15.10;99.90;;;;;;4999040;28;20069;-46
2023/10/12 13:03:09;;;;;;;9.35;2.58;;;15.20;99.90;;;;;;4980825;28;20465;-45
2023/10/12 13:05:35;;;;;;;9.70;2.25;;;15.20;99.90;;;;;;4980997;28;20089;-45
2023/10/12 13:08:00;;;;;;;10.05;2.10;;;15.20;99.90;;;;;;4965393;28;20513;-43
2023/10/12 13:10:26;;;;;;;11.52;1.98;;;15.20;99.90;;;;;;4999618;28;20041;-46
2023/10/12 13:12:53;;;;;;;7.93;1.88;;;15.10;99.90;;;;;;4964657;28;20718;-45
2023/10/12 13:15:18;;;;;;;9.43;2.40;;;15.00;99.90;;;;;;4998863;28;20053;-44
2023/10/12 13:17:44;;;;;;;9.45;2.40;;;14.90;99.90;;;;;;4999403;28;20377;-44
2023/10/12 13:20:17;;;;;;;8.70;2.00;;;14.80;99.90;;;;;;4998901;28;20045;-51
2023/10/12 13:22:44;;;;;;;;;;;14.70;99.90;;;;;;4980734;28;20100;-46
2023/10/12 13:25:10;;;;;;;10.32;2.53;;;14.70;99.90;;;;;;4981142;28;20338;-43
2023/10/12 13:27:37;;;;;;;9.45;1.95;;;14.60;99.90;;;;;;4964887;28;20477;-44
2023/10/12 13:30:10;;;;;;;9.35;1.90;;;14.60;99.90;;;;;;4997669;28;20064;-46
2023/10/12 13:32:38;;;;;;;5.55;1.73;;;14.50;99.90;;;;;;4998531;28;20225;-43
2023/10/12 13:38:09;;;;;;;8.73;2.15;;;14.50;99.90;;;;;;4946292;28;20142;-44
2023/10/12 13:40:39;;;;;;;8.52;2.17;;;14.40;99.90;;;;;;4958537;28;20049;-46
2023/10/12 13:45:49;;;;;;;13.57;2.45;;;14.50;99.90;;;;;;4981332;28;20567;-44
2023/10/12 13:48:24;;;;;;;7.53;2.03;;;14.60;99.90;;;;;;4999200;28;20123;-45
2023/10/12 13:51:17;;;;;;;7.13;2.10;;;14.60;99.90;;;;;;4998580;28;20046;-46
2023/10/12 13:53:45;;;;;;;16.95;2.97;;;14.60;99.90;;;;;;4996702;28;20133;-46
2023/10/12 13:56:12;;;;;;;12.18;2.55;;;14.60;99.90;;;;;;4999679;28;20041;-46
2023/10/12 13:58:39;;;;;;;9.30;2.25;;;14.60;99.90;;;;;;4992665;28;20116;-47
2023/10/12 14:01:13;;;;;;;10.57;2.63;;;14.60;99.90;;;;;;4994373;28;20129;-45
2023/10/12 14:03:41;;;;;;;9.60;2.10;;;14.60;99.90;;;;;;4986797;28;20069;-48
2023/10/12 14:06:07;;;;;;;9.77;2.47;;;14.50;99.90;;;;;;4992201;28;20455;-45
2023/10/12 14:08:40;;;;;;;9.35;2.45;;;14.40;99.90;;;;;;4957947;28;20138;-47
2023/10/12 14:11:06;;;;;;;10.95;2.45;;;14.40;99.90;;;;;;4976963;28;20057;-43
2023/10/12 14:13:33;;;;;;;9.38;2.22;;;14.30;99.90;;;;;;4998293;28;20606;-47
2023/10/12 14:15:59;;;;;;;9.00;2.28;;;14.30;99.90;;;;;;4981537;28;20107;-44
2023/10/12 14:18:28;;;;;;;9.98;2.92;;;14.20;99.90;;;;;;4959128;28;20505;-45
2023/10/12 14:20:55;;;;;;;9.40;2.55;;;14.20;99.90;;;;;;5004640;28;20041;-44
2023/10/12 14:23:26;;;;;;;11.32;3.03;;;14.10;99.90;;;;;;4974504;28;20153;-45
2023/10/12 14:25:54;;;;;;;12.05;3.03;;;14.10;99.90;;;;;;4979686;28;20053;-43
2023/10/12 14:28:20;;;;;;;10.20;2.08;;;14.10;99.90;;;;;;4974948;28;20132;-45
2023/10/12 14:30:53;;;;;;;9.13;2.22;;;14.10;99.90;;;;;;4998781;28;20356;-47
2023/10/12 14:33:19;;;;;;;12.93;2.63;;;14.00;99.90;;;;;;4976465;28;20046;-45
2023/10/12 14:35:46;;;;;;;7.70;2.78;;;14.00;99.90;;;;;;5006232;28;20100;-45
2023/10/12 14:38:16;;;;;;;13.23;2.17;;;14.00;99.90;;;;;;5000420;28;20081;-42
2023/10/12 14:40:43;;;;;;;13.20;3.45;;;14.00;99.90;;;;;;4998831;28;20056;-43
2023/10/12 14:43:11;;;;;;;11.23;2.80;;;14.00;99.90;;;;;;4997304;28;20053;-44
2023/10/12 14:45:43;;;;;;;10.82;2.78;;;14.10;99.90;;;;;;4996374;28;20064;-46
2023/10/12 14:48:10;;;;;;;9.63;2.33;;;14.10;99.90;;;;;;4995808;28;20046;-46
2023/10/12 14:50:47;;;;;;;11.50;2.53;;;14.00;99.90;;;;;;4982771;28;20327;-44
2023/10/12 14:53:16;;;;;;;8.95;2.20;;;14.00;99.90;;;;;;4979782;28;20068;-44
2023/10/12 14:55:51;;;;;;;9.80;2.40;;;14.00;99.90;;;;;;4998119;28;20049;-43
2023/10/12 14:58:20;;;;;;;9.38;2.00;;;13.90;99.90;;;;;;4998060;28;20556;-44
2023/10/12 15:00:46;;;;;;;11.07;3.05;;;13.80;99.90;;;;;;5000311;28;20107;-44
2023/10/12 15:03:21;;;;;;;5.88;1.80;;;13.60;99.90;;;;;;5003478;28;20479;-46
2023/10/12 15:05:53;;;;;;;11.77;3.33;;;13.50;99.90;;;;;;4988627;28;20069;-46
2023/10/12 15:08:20;;;;;;;8.73;2.13;;;13.40;99.90;;;;;;5003830;28;20135;-44
2023/10/12 15:10:47;;;;;;;9.10;2.35;;;13.40;99.90;;;;;;4987754;28;20045;-46
2023/10/12 15:13:14;;;;;;;14.48;3.25;;;13.30;99.90;;;;;;5000262;28;20128;-46
2023/10/12 15:15:49;;;;;;;13.98;2.60;;;13.30;99.90;;;;;;4993077;28;20491;-43